sensor_id;sensor_type;location;lat;lon;timestamp;pressure;altitude;pressure_sealevel;temperature;humidity
35248;BME280;21380;52.194;20.520;2023-08-08T00:00:09;99615.94;;;21.26;67.17
35248;BME280;21380;52.194;20.520;2023-08-08T00:02:55;99606.41;;;21.20;67.30
35248;BME280;21380;52.194;20.520;2023-08-08T00:05:21;99626.44;;;21.26;66.98
35248;BME280;21380;52.194;20.520;2023-08-08T00:07:47;99622.94;;;21.26;67.09
35248;BME280;21380;52.194;20.520;2023-08-08T00:10:13;99628.19;;;21.26;67.17
35248;BME280;21380;52.194;20.520;2023-08-08T00:12:39;99627.34;;;21.25;67.01
35248;BME280;21380;52.194;20.520;2023-08-08T00:15:05;99629.09;;;21.25;66.84
35248;BME280;21380;52.194;20.520;2023-08-08T00:17:31;99635.22;;;21.24;66.99
35248;BME280;21380;52.194;20.520;2023-08-08T00:19:57;99632.59;;;21.24;66.78
35248;BME280;21380;52.194;20.520;2023-08-08T00:22:23;99621.34;;;21.15;66.95
35248;BME280;21380;52.194;20.520;2023-08-08T00:24:49;99638.75;;;21.22;66.84
35248;BME280;21380;52.194;20.520;2023-08-08T00:27:15;99636.13;;;21.22;66.79
35248;BME280;21380;52.194;20.520;2023-08-08T00:29:41;99640.50;;;21.22;66.86
35248;BME280;21380;52.194;20.520;2023-08-08T00:32:07;99638.88;;;21.15;66.75
35248;BME280;21380;52.194;20.520;2023-08-08T00:34:33;99641.41;;;21.21;66.71
35248;BME280;21380;52.194;20.520;2023-08-08T00:36:58;99640.56;;;21.17;66.82
35248;BME280;21380;52.194;20.520;2023-08-08T00:39:24;99647.50;;;21.21;66.69
35248;BME280;21380;52.194;20.520;2023-08-08T00:41:50;99645.75;;;21.20;66.68
35248;BME280;21380;52.194;20.520;2023-08-08T00:44:16;99644.00;;;21.19;66.48
35248;BME280;21380;52.194;20.520;2023-08-08T00:46:42;99644.16;;;21.10;66.64
35248;BME280;21380;52.194;20.520;2023-08-08T00:49:08;99663.28;;;21.18;66.60
35248;BME280;21380;52.194;20.520;2023-08-08T00:51:34;99663.28;;;21.18;66.59
35248;BME280;21380;52.194;20.520;2023-08-08T00:54:00;99663.31;;;21.15;66.52
35248;BME280;21380;52.194;20.520;2023-08-08T00:56:26;99663.28;;;21.17;66.66
35248;BME280;21380;52.194;20.520;2023-08-08T00:58:52;99652.91;;;21.09;66.48
35248;BME280;21380;52.194;20.520;2023-08-08T01:01:18;99656.44;;;21.08;66.48
35248;BME280;21380;52.194;20.520;2023-08-08T01:03:45;99659.91;;;21.10;66.30
35248;BME280;21380;52.194;20.520;2023-08-08T01:06:22;99670.34;;;21.15;66.40
35248;BME280;21380;52.194;20.520;2023-08-08T01:08:55;99664.28;;;21.10;66.37
35248;BME280;21380;52.194;20.520;2023-08-08T01:11:23;99672.06;;;21.16;66.46
35248;BME280;21380;52.194;20.520;2023-08-08T01:13:52;99663.44;;;21.08;66.31
35248;BME280;21380;52.194;20.520;2023-08-08T01:16:20;99672.06;;;21.14;66.41
35248;BME280;21380;52.194;20.520;2023-08-08T01:18:47;99666.09;;;21.06;66.09
35248;BME280;21380;52.194;20.520;2023-08-08T01:21:15;99667.84;;;21.05;66.35
35248;BME280;21380;52.194;20.520;2023-08-08T01:23:56;99689.56;;;21.14;66.26
35248;BME280;21380;52.194;20.520;2023-08-08T01:26:23;99684.47;;;21.03;66.32
35248;BME280;21380;52.194;20.520;2023-08-08T01:28:52;99687.03;;;21.08;66.31
35248;BME280;21380;52.194;20.520;2023-08-08T01:31:18;99661.03;;;20.94;66.23
35248;BME280;21380;52.194;20.520;2023-08-08T01:33:44;99673.22;;;20.96;66.30
35248;BME280;21380;52.194;20.520;2023-08-08T01:36:20;99667.09;;;20.96;66.12
35248;BME280;21380;52.194;20.520;2023-08-08T01:38:48;99694.84;;;21.11;66.04
35248;BME280;21380;52.194;20.520;2023-08-08T01:41:17;99696.63;;;21.10;66.02
35248;BME280;21380;52.194;20.520;2023-08-08T01:43:44;99699.28;;;21.09;66.15
35248;BME280;21380;52.194;20.520;2023-08-08T01:46:12;99696.66;;;21.09;66.01
35248;BME280;21380;52.194;20.520;2023-08-08T01:48:38;99705.44;;;21.06;66.11
35248;BME280;21380;52.194;20.520;2023-08-08T01:51:05;99709.78;;;21.07;65.93
35248;BME280;21380;52.194;20.520;2023-08-08T01:53:31;99713.25;;;21.08;65.96
35248;BME280;21380;52.194;20.520;2023-08-08T01:55:57;99692.50;;;20.92;65.96
35248;BME280;21380;52.194;20.520;2023-08-08T01:58:23;99716.84;;;21.00;65.87
35248;BME280;21380;52.194;20.520;2023-08-08T02:00:49;99713.41;;;20.98;65.79
35248;BME280;21380;52.194;20.520;2023-08-08T02:03:15;99722.94;;;21.04;65.63
35248;BME280;21380;52.194;20.520;2023-08-08T02:05:41;99734.28;;;21.03;65.78
35248;BME280;21380;52.194;20.520;2023-08-08T02:08:06;99729.03;;;21.04;65.80
35248;BME280;21380;52.194;20.520;2023-08-08T02:10:32;99718.66;;;20.95;65.46
35248;BME280;21380;52.194;20.520;2023-08-08T02:12:58;99735.19;;;21.03;65.89
35248;BME280;21380;52.194;20.520;2023-08-08T02:15:24;99741.31;;;21.02;65.56
35248;BME280;21380;52.194;20.520;2023-08-08T02:17:50;99751.81;;;21.01;65.71
35248;BME280;21380;52.194;20.520;2023-08-08T02:20:16;99739.59;;;21.00;65.63
35248;BME280;21380;52.194;20.520;2023-08-08T02:22:42;99737.97;;;20.91;65.51
35248;BME280;21380;52.194;20.520;2023-08-08T02:25:08;99747.47;;;20.97;65.63
35248;BME280;21380;52.194;20.520;2023-08-08T02:27:34;99733.63;;;20.88;65.52
35248;BME280;21380;52.194;20.520;2023-08-08T02:30:00;99732.78;;;20.86;65.40
35248;BME280;21380;52.194;20.520;2023-08-08T02:32:26;99753.59;;;20.96;65.23
35248;BME280;21380;52.194;20.520;2023-08-08T02:34:52;99751.03;;;20.93;65.20
35248;BME280;21380;52.194;20.520;2023-08-08T02:37:18;99748.47;;;20.89;65.04
35248;BME280;21380;52.194;20.520;2023-08-08T02:39:44;99765.84;;;20.98;64.91
35248;BME280;21380;52.194;20.520;2023-08-08T02:42:10;99768.47;;;20.97;64.81
35248;BME280;21380;52.194;20.520;2023-08-08T02:44:35;99758.97;;;20.88;65.23
35248;BME280;21380;52.194;20.520;2023-08-08T02:47:02;99774.59;;;20.94;65.22
35248;BME280;21380;52.194;20.520;2023-08-08T02:49:27;99761.59;;;20.86;64.69
35248;BME280;21380;52.194;20.520;2023-08-08T02:51:54;99765.09;;;20.88;64.96
35248;BME280;21380;52.194;20.520;2023-08-08T02:54:20;99764.28;;;20.83;64.75
35248;BME280;21380;52.194;20.520;2023-08-08T02:56:46;99777.34;;;20.86;64.82
35248;BME280;21380;52.194;20.520;2023-08-08T02:59:11;99785.97;;;20.95;64.82
35248;BME280;21380;52.194;20.520;2023-08-08T03:01:37;99781.63;;;20.94;64.84
35248;BME280;21380;52.194;20.520;2023-08-08T03:04:05;99785.13;;;20.93;64.50
35248;BME280;21380;52.194;20.520;2023-08-08T03:06:31;99784.28;;;20.92;64.92
35248;BME280;21380;52.194;20.520;2023-08-08T03:08:57;99790.38;;;20.93;64.81
35248;BME280;21380;52.194;20.520;2023-08-08T03:11:23;99781.69;;;20.87;64.39
35248;BME280;21380;52.194;20.520;2023-08-08T03:13:49;99768.66;;;20.81;64.51
35248;BME280;21380;52.194;20.520;2023-08-08T03:16:15;99795.63;;;20.91;64.68
35248;BME280;21380;52.194;20.520;2023-08-08T03:18:41;99803.50;;;20.91;64.58
35248;BME280;21380;52.194;20.520;2023-08-08T03:21:07;99804.44;;;20.85;64.53
35248;BME280;21380;52.194;20.520;2023-08-08T03:23:33;99785.31;;;20.76;64.59
35248;BME280;21380;52.194;20.520;2023-08-08T03:25:59;99803.59;;;20.82;64.65
35248;BME280;21380;52.194;20.520;2023-08-08T03:28:24;99816.66;;;20.86;64.97
35248;BME280;21380;52.194;20.520;2023-08-08T03:30:50;99812.28;;;20.88;64.49
35248;BME280;21380;52.194;20.520;2023-08-08T03:33:16;99814.09;;;20.83;64.47
35248;BME280;21380;52.194;20.520;2023-08-08T03:35:42;99819.31;;;20.85;64.31
35248;BME280;21380;52.194;20.520;2023-08-08T03:38:09;99820.13;;;20.87;64.34
35248;BME280;21380;52.194;20.520;2023-08-08T03:40:35;99834.97;;;20.88;64.52
35248;BME280;21380;52.194;20.520;2023-08-08T03:43:01;99830.63;;;20.88;64.29
35248;BME280;21380;52.194;20.520;2023-08-08T03:45:28;99821.94;;;20.82;64.38
35248;BME280;21380;52.194;20.520;2023-08-08T03:47:53;99828.91;;;20.86;64.24
35248;BME280;21380;52.194;20.520;2023-08-08T03:50:20;99824.56;;;20.82;64.42
35248;BME280;21380;52.194;20.520;2023-08-08T03:52:45;99840.22;;;20.88;64.25
35248;BME280;21380;52.194;20.520;2023-08-08T03:55:11;99822.88;;;20.78;64.41
35248;BME280;21380;52.194;20.520;2023-08-08T03:57:37;99836.75;;;20.87;64.33
35248;BME280;21380;52.194;20.520;2023-08-08T04:00:04;99835.13;;;20.77;64.31
35248;BME280;21380;52.194;20.520;2023-08-08T04:02:30;99832.47;;;20.79;64.44
35248;BME280;21380;52.194;20.520;2023-08-08T04:04:56;99834.22;;;20.80;64.33
35248;BME280;21380;52.194;20.520;2023-08-08T04:07:22;99848.09;;;20.88;64.51
35248;BME280;21380;52.194;20.520;2023-08-08T04:09:48;99857.72;;;20.87;64.46
35248;BME280;21380;52.194;20.520;2023-08-08T04:12:14;99855.13;;;20.84;64.52
35248;BME280;21380;52.194;20.520;2023-08-08T04:14:40;99855.13;;;20.84;64.66
35248;BME280;21380;52.194;20.520;2023-08-08T04:17:05;99853.41;;;20.80;64.50
35248;BME280;21380;52.194;20.520;2023-08-08T04:19:31;99861.25;;;20.82;64.45
35248;BME280;21380;52.194;20.520;2023-08-08T04:21:57;99849.97;;;20.75;64.56
35248;BME280;21380;52.194;20.520;2023-08-08T04:24:23;99871.69;;;20.86;64.37
35248;BME280;21380;52.194;20.520;2023-08-08T04:26:49;99863.88;;;20.82;64.55
35248;BME280;21380;52.194;20.520;2023-08-08T04:29:15;99871.78;;;20.80;64.43
35248;BME280;21380;52.194;20.520;2023-08-08T04:31:40;99882.19;;;20.89;64.41
35248;BME280;21380;52.194;20.520;2023-08-08T04:34:06;99874.41;;;20.79;64.41
35248;BME280;21380;52.194;20.520;2023-08-08T04:36:32;99887.44;;;20.86;64.28
35248;BME280;21380;52.194;20.520;2023-08-08T04:38:58;99885.69;;;20.85;64.31
35248;BME280;21380;52.194;20.520;2023-08-08T04:41:24;99903.16;;;20.89;64.39
35248;BME280;21380;52.194;20.520;2023-08-08T04:43:50;99887.47;;;20.82;64.33
35248;BME280;21380;52.194;20.520;2023-08-08T04:46:16;99904.03;;;20.88;64.28
35248;BME280;21380;52.194;20.520;2023-08-08T04:48:42;99903.13;;;20.88;64.33
35248;BME280;21380;52.194;20.520;2023-08-08T04:51:08;99900.53;;;20.86;64.19
35248;BME280;21380;52.194;20.520;2023-08-08T04:53:34;99902.28;;;20.84;64.34
35248;BME280;21380;52.194;20.520;2023-08-08T04:56:00;99903.22;;;20.80;64.36
35248;BME280;21380;52.194;20.520;2023-08-08T04:58:26;99919.75;;;20.88;64.24
35248;BME280;21380;52.194;20.520;2023-08-08T05:00:52;99922.38;;;20.87;64.09
35248;BME280;21380;52.194;20.520;2023-08-08T05:03:18;99917.13;;;20.88;64.16
35248;BME280;21380;52.194;20.520;2023-08-08T05:05:44;99922.38;;;20.88;64.22
35248;BME280;21380;52.194;20.520;2023-08-08T05:08:13;99920.69;;;20.81;64.16
35248;BME280;21380;52.194;20.520;2023-08-08T05:10:39;99919.75;;;20.88;64.22
35248;BME280;21380;52.194;20.520;2023-08-08T05:13:05;99922.38;;;20.88;64.25
35248;BME280;21380;52.194;20.520;2023-08-08T05:15:31;99925.06;;;20.82;64.28
35248;BME280;21380;52.194;20.520;2023-08-08T05:17:57;99934.59;;;20.88;64.30
35248;BME280;21380;52.194;20.520;2023-08-08T05:20:22;99922.38;;;20.88;64.16
35248;BME280;21380;52.194;20.520;2023-08-08T05:22:48;99935.50;;;20.88;64.12
35248;BME280;21380;52.194;20.520;2023-08-08T05:25:14;99944.22;;;20.89;64.16
35248;BME280;21380;52.194;20.520;2023-08-08T05:27:40;99940.72;;;20.88;64.31
35248;BME280;21380;52.194;20.520;2023-08-08T05:30:06;99943.34;;;20.88;64.35
35248;BME280;21380;52.194;20.520;2023-08-08T05:32:32;99940.72;;;20.88;64.24
35248;BME280;21380;52.194;20.520;2023-08-08T05:34:58;99945.09;;;20.88;64.38
35248;BME280;21380;52.194;20.520;2023-08-08T05:37:26;99952.06;;;20.89;64.23
35248;BME280;21380;52.194;20.520;2023-08-08T05:39:53;99948.59;;;20.88;64.22
35248;BME280;21380;52.194;20.520;2023-08-08T05:42:19;99946.88;;;20.84;64.17
35248;BME280;21380;52.194;20.520;2023-08-08T05:44:45;99936.41;;;20.81;64.26
35248;BME280;21380;52.194;20.520;2023-08-08T05:47:11;99932.94;;;20.78;64.22
35248;BME280;21380;52.194;20.520;2023-08-08T05:49:39;99952.09;;;20.87;64.21
35248;BME280;21380;52.194;20.520;2023-08-08T05:52:08;99953.84;;;20.88;64.17
35248;BME280;21380;52.194;20.520;2023-08-08T05:54:34;99949.50;;;20.83;64.05
35248;BME280;21380;52.194;20.520;2023-08-08T05:57:02;99949.53;;;20.80;64.08
35248;BME280;21380;52.194;20.520;2023-08-08T05:59:27;99945.22;;;20.74;64.19
35248;BME280;21380;52.194;20.520;2023-08-08T06:01:53;99956.50;;;20.82;64.10
35248;BME280;21380;52.194;20.520;2023-08-08T06:04:19;99976.56;;;20.86;64.09
35248;BME280;21380;52.194;20.520;2023-08-08T06:06:45;99971.31;;;20.88;64.08
35248;BME280;21380;52.194;20.520;2023-08-08T06:09:15;99973.06;;;20.84;64.09
35248;BME280;21380;52.194;20.520;2023-08-08T06:11:41;99968.78;;;20.79;63.94
35248;BME280;21380;52.194;20.520;2023-08-08T06:14:07;99979.19;;;20.86;63.94
35248;BME280;21380;52.194;20.520;2023-08-08T06:16:33;99983.56;;;20.87;64.06
35248;BME280;21380;52.194;20.520;2023-08-08T06:18:58;99978.31;;;20.87;63.99
35248;BME280;21380;52.194;20.520;2023-08-08T06:21:24;99986.19;;;20.87;63.85
35248;BME280;21380;52.194;20.520;2023-08-08T06:23:50;99977.50;;;20.81;64.01
35248;BME280;21380;52.194;20.520;2023-08-08T06:26:18;99971.41;;;20.77;63.86
35248;BME280;21380;52.194;20.520;2023-08-08T06:28:46;99994.91;;;20.88;63.91
35248;BME280;21380;52.194;20.520;2023-08-08T06:31:13;99974.00;;;20.79;63.78
35248;BME280;21380;52.194;20.520;2023-08-08T06:33:39;99980.97;;;20.81;63.83
35248;BME280;21380;52.194;20.520;2023-08-08T06:36:05;99987.09;;;20.83;63.80
35248;BME280;21380;52.194;20.520;2023-08-08T06:38:31;99990.56;;;20.84;63.79
35248;BME280;21380;52.194;20.520;2023-08-08T06:41:02;99993.16;;;20.85;63.85
35248;BME280;21380;52.194;20.520;2023-08-08T06:43:28;100000.16;;;20.89;64.00
35248;BME280;21380;52.194;20.520;2023-08-08T06:45:55;99978.41;;;20.75;63.76
35248;BME280;21380;52.194;20.520;2023-08-08T06:48:21;100000.13;;;20.88;63.83
35248;BME280;21380;52.194;20.520;2023-08-08T06:50:47;100001.03;;;20.88;63.74
35248;BME280;21380;52.194;20.520;2023-08-08T06:53:14;99987.94;;;20.84;63.78
35248;BME280;21380;52.194;20.520;2023-08-08T06:55:41;99974.88;;;20.79;63.69
35248;BME280;21380;52.194;20.520;2023-08-08T06:58:07;99982.72;;;20.82;63.74
35248;BME280;21380;52.194;20.520;2023-08-08T07:00:33;99989.66;;;20.86;63.83
35248;BME280;21380;52.194;20.520;2023-08-08T07:03:01;99992.28;;;20.86;63.79
35248;BME280;21380;52.194;20.520;2023-08-08T07:05:27;100002.78;;;20.89;63.69
35248;BME280;21380;52.194;20.520;2023-08-08T07:07:53;99989.69;;;20.82;63.76
35248;BME280;21380;52.194;20.520;2023-08-08T07:10:19;99997.59;;;20.83;63.66
35248;BME280;21380;52.194;20.520;2023-08-08T07:12:46;99994.06;;;20.84;63.65
35248;BME280;21380;52.194;20.520;2023-08-08T07:15:12;99999.31;;;20.83;63.70
35248;BME280;21380;52.194;20.520;2023-08-08T07:17:38;99994.09;;;20.81;63.68
35248;BME280;21380;52.194;20.520;2023-08-08T07:20:04;99991.44;;;20.83;63.56
35248;BME280;21380;52.194;20.520;2023-08-08T07:22:31;99986.25;;;20.77;63.65
35248;BME280;21380;52.194;20.520;2023-08-08T07:24:59;99993.25;;;20.76;63.63
35248;BME280;21380;52.194;20.520;2023-08-08T07:27:26;100001.94;;;20.83;63.59
35248;BME280;21380;52.194;20.520;2023-08-08T07:29:52;100014.97;;;20.90;63.61
35248;BME280;21380;52.194;20.520;2023-08-08T07:32:18;100001.06;;;20.84;63.74
35248;BME280;21380;52.194;20.520;2023-08-08T07:34:44;100009.72;;;20.90;63.52
35248;BME280;21380;52.194;20.520;2023-08-08T07:37:10;99995.81;;;20.84;63.40
35248;BME280;21380;52.194;20.520;2023-08-08T07:39:36;100012.34;;;20.90;63.56
35248;BME280;21380;52.194;20.520;2023-08-08T07:42:02;100007.19;;;20.83;63.57
35248;BME280;21380;52.194;20.520;2023-08-08T07:44:28;100015.84;;;20.91;63.63
35248;BME280;21380;52.194;20.520;2023-08-08T07:46:54;100009.78;;;20.84;63.68
35248;BME280;21380;52.194;20.520;2023-08-08T07:49:20;99998.47;;;20.81;63.30
35248;BME280;21380;52.194;20.520;2023-08-08T07:51:46;100007.16;;;20.84;63.45
35248;BME280;21380;52.194;20.520;2023-08-08T07:54:12;100019.34;;;20.90;63.46
35248;BME280;21380;52.194;20.520;2023-08-08T07:56:37;100009.78;;;20.84;63.39
35248;BME280;21380;52.194;20.520;2023-08-08T07:59:04;100018.50;;;20.88;63.28
35248;BME280;21380;52.194;20.520;2023-08-08T08:01:30;100031.59;;;20.89;63.24
35248;BME280;21380;52.194;20.520;2023-08-08T08:03:56;100010.69;;;20.83;63.42
35248;BME280;21380;52.194;20.520;2023-08-08T08:06:21;100013.22;;;20.91;63.25
35248;BME280;21380;52.194;20.520;2023-08-08T08:08:47;100014.09;;;20.92;63.37
35248;BME280;21380;52.194;20.520;2023-08-08T08:11:13;100015.84;;;20.91;63.29
35248;BME280;21380;52.194;20.520;2023-08-08T08:13:41;100015.03;;;20.86;63.22
35248;BME280;21380;52.194;20.520;2023-08-08T08:16:07;99997.59;;;20.83;63.41
35248;BME280;21380;52.194;20.520;2023-08-08T08:18:33;100009.72;;;20.90;63.19
35248;BME280;21380;52.194;20.520;2023-08-08T08:20:59;100014.09;;;20.92;63.17
35248;BME280;21380;52.194;20.520;2023-08-08T08:23:26;100006.31;;;20.84;63.37
35248;BME280;21380;52.194;20.520;2023-08-08T08:25:52;100012.34;;;20.92;63.26
35248;BME280;21380;52.194;20.520;2023-08-08T08:28:18;100013.22;;;20.93;63.27
35248;BME280;21380;52.194;20.520;2023-08-08T08:30:43;100006.28;;;20.88;63.24
35248;BME280;21380;52.194;20.520;2023-08-08T08:33:09;100004.50;;;20.92;63.29
35248;BME280;21380;52.194;20.520;2023-08-08T08:35:35;100009.75;;;20.92;63.24
35248;BME280;21380;52.194;20.520;2023-08-08T08:38:02;100000.19;;;20.85;63.04
35248;BME280;21380;52.194;20.520;2023-08-08T08:40:30;100017.59;;;20.92;63.12
35248;BME280;21380;52.194;20.520;2023-08-08T08:42:59;100010.63;;;20.91;63.08
35248;BME280;21380;52.194;20.520;2023-08-08T08:45:25;99999.28;;;20.84;63.03
35248;BME280;21380;52.194;20.520;2023-08-08T08:47:55;100001.88;;;20.89;63.02
35248;BME280;21380;52.194;20.520;2023-08-08T08:50:21;99995.78;;;20.85;62.85
35248;BME280;21380;52.194;20.520;2023-08-08T08:52:49;99998.41;;;20.85;63.01
35248;BME280;21380;52.194;20.520;2023-08-08T08:55:16;100012.34;;;20.90;63.20
35248;BME280;21380;52.194;20.520;2023-08-08T08:57:42;100004.50;;;20.89;62.68
35248;BME280;21380;52.194;20.520;2023-08-08T09:00:11;100010.56;;;20.94;62.97
35248;BME280;21380;52.194;20.520;2023-08-08T09:02:38;100020.19;;;20.94;63.13
35248;BME280;21380;52.194;20.520;2023-08-08T09:05:04;100014.97;;;20.94;62.88
35248;BME280;21380;52.194;20.520;2023-08-08T09:07:31;100022.81;;;20.95;63.45
35248;BME280;21380;52.194;20.520;2023-08-08T09:09:58;100016.72;;;20.95;63.13
35248;BME280;21380;52.194;20.520;2023-08-08T09:12:24;100022.81;;;20.95;62.97
35248;BME280;21380;52.194;20.520;2023-08-08T09:14:57;100032.44;;;20.95;63.14
35248;BME280;21380;52.194;20.520;2023-08-08T09:17:27;100020.19;;;20.95;63.27
35248;BME280;21380;52.194;20.520;2023-08-08T09:19:54;100037.66;;;20.93;63.09
35248;BME280;21380;52.194;20.520;2023-08-08T09:22:21;100024.56;;;20.95;62.81
35248;BME280;21380;52.194;20.520;2023-08-08T09:24:46;100008.03;;;20.86;62.72
35248;BME280;21380;52.194;20.520;2023-08-08T09:27:13;100036.78;;;20.94;62.78
35248;BME280;21380;52.194;20.520;2023-08-08T09:29:41;100030.69;;;20.94;62.55
35248;BME280;21380;52.194;20.520;2023-08-08T09:32:07;100022.81;;;20.94;62.82
35248;BME280;21380;52.194;20.520;2023-08-08T09:34:34;100027.19;;;20.95;62.57
35248;BME280;21380;52.194;20.520;2023-08-08T09:37:00;100011.53;;;20.85;62.55
35248;BME280;21380;52.194;20.520;2023-08-08T09:39:28;100029.81;;;20.92;62.11
35248;BME280;21380;52.194;20.520;2023-08-08T09:41:58;100010.69;;;20.82;62.43
35248;BME280;21380;52.194;20.520;2023-08-08T09:44:24;100025.47;;;20.89;62.55
35248;BME280;21380;52.194;20.520;2023-08-08T09:46:53;100024.59;;;20.90;62.97
35248;BME280;21380;52.194;20.520;2023-08-08T09:49:19;100033.31;;;20.94;62.55
35248;BME280;21380;52.194;20.520;2023-08-08T09:51:46;100023.75;;;20.89;62.71
35248;BME280;21380;52.194;20.520;2023-08-08T09:54:13;100037.66;;;20.96;62.55
35248;BME280;21380;52.194;20.520;2023-08-08T09:56:40;100042.91;;;20.96;63.08
35248;BME280;21380;52.194;20.520;2023-08-08T09:59:07;100029.78;;;20.96;62.84
35248;BME280;21380;52.194;20.520;2023-08-08T10:01:34;100028.94;;;20.93;62.80
35248;BME280;21380;52.194;20.520;2023-08-08T10:04:03;100033.28;;;20.97;62.99
35248;BME280;21380;52.194;20.520;2023-08-08T10:06:29;100018.50;;;20.89;63.29
35248;BME280;21380;52.194;20.520;2023-08-08T10:08:55;100028.94;;;20.94;63.39
35248;BME280;21380;52.194;20.520;2023-08-08T10:11:22;100035.88;;;20.97;62.89
35248;BME280;21380;52.194;20.520;2023-08-08T10:13:52;100025.41;;;20.97;63.15
35248;BME280;21380;52.194;20.520;2023-08-08T10:16:18;100021.97;;;20.92;63.12
35248;BME280;21380;52.194;20.520;2023-08-08T10:19:04;100028.91;;;20.99;63.54
35248;BME280;21380;52.194;20.520;2023-08-08T10:21:44;100012.41;;;20.86;63.40
35248;BME280;21380;52.194;20.520;2023-08-08T10:24:10;100027.13;;;20.99;64.01
35248;BME280;21380;52.194;20.520;2023-08-08T10:26:59;100024.53;;;21.01;64.40
35248;BME280;21380;52.194;20.520;2023-08-08T10:29:29;100028.00;;;21.01;64.76
35248;BME280;21380;52.194;20.520;2023-08-08T10:32:06;100027.97;;;21.03;64.89
35248;BME280;21380;52.194;20.520;2023-08-08T10:34:46;100029.75;;;21.01;65.00
35248;BME280;21380;52.194;20.520;2023-08-08T10:37:17;100035.84;;;21.06;65.23
35248;BME280;21380;52.194;20.520;2023-08-08T10:40:02;100034.97;;;21.07;65.31
35248;BME280;21380;52.194;20.520;2023-08-08T10:42:46;100032.34;;;21.07;65.59
35248;BME280;21380;52.194;20.520;2023-08-08T10:45:14;100036.66;;;21.08;65.99
35248;BME280;21380;52.194;20.520;2023-08-08T10:47:41;100034.03;;;21.08;65.80
35248;BME280;21380;52.194;20.520;2023-08-08T10:50:15;100041.03;;;21.09;66.44
35248;BME280;21380;52.194;20.520;2023-08-08T10:52:55;100046.28;;;21.09;66.39
35248;BME280;21380;52.194;20.520;2023-08-08T10:55:24;100034.09;;;21.02;66.43
35248;BME280;21380;52.194;20.520;2023-08-08T10:57:57;100045.41;;;21.09;67.24
35248;BME280;21380;52.194;20.520;2023-08-08T11:00:36;100047.22;;;21.03;66.35
35248;BME280;21380;52.194;20.520;2023-08-08T11:03:03;100054.19;;;21.06;66.28
35248;BME280;21380;52.194;20.520;2023-08-08T11:05:34;100045.47;;;20.99;65.09
35248;BME280;21380;52.194;20.520;2023-08-08T11:08:03;100042.00;;;20.99;66.09
35248;BME280;21380;52.194;20.520;2023-08-08T11:10:29;100053.34;;;21.01;65.50
35248;BME280;21380;52.194;20.520;2023-08-08T11:13:03;100055.09;;;21.03;65.44
35248;BME280;21380;52.194;20.520;2023-08-08T11:15:32;100027.19;;;20.95;65.41
35248;BME280;21380;52.194;20.520;2023-08-08T11:17:59;100056.81;;;21.03;65.40
35248;BME280;21380;52.194;20.520;2023-08-08T11:20:32;100035.00;;;21.01;65.22
35248;BME280;21380;52.194;20.520;2023-08-08T11:22:59;100024.56;;;20.96;66.43
35248;BME280;21380;52.194;20.520;2023-08-08T11:25:26;100029.75;;;20.99;66.63
35248;BME280;21380;52.194;20.520;2023-08-08T11:27:57;100041.06;;;21.04;67.49
35248;BME280;21380;52.194;20.520;2023-08-08T11:30:28;100042.84;;;21.04;68.23
35248;BME280;21380;52.194;20.520;2023-08-08T11:32:54;100043.69;;;21.06;68.40
35248;BME280;21380;52.194;20.520;2023-08-08T11:35:24;100053.31;;;21.07;68.75
35248;BME280;21380;52.194;20.520;2023-08-08T11:37:56;100036.72;;;21.02;68.54
35248;BME280;21380;52.194;20.520;2023-08-08T11:40:23;100045.44;;;21.05;68.62
35248;BME280;21380;52.194;20.520;2023-08-08T11:42:51;100058.59;;;20.99;67.34
35248;BME280;21380;52.194;20.520;2023-08-08T11:45:18;100042.88;;;21.01;66.77
35248;BME280;21380;52.194;20.520;2023-08-08T11:47:48;100033.34;;;20.89;67.33
35248;BME280;21380;52.194;20.520;2023-08-08T11:50:14;100059.41;;;21.04;65.05
35248;BME280;21380;52.194;20.520;2023-08-08T11:52:42;100057.69;;;21.02;63.88
35248;BME280;21380;52.194;20.520;2023-08-08T11:55:08;100046.41;;;20.95;64.01
35248;BME280;21380;52.194;20.520;2023-08-08T11:57:36;100054.19;;;21.03;62.07
35248;BME280;21380;52.194;20.520;2023-08-08T12:00:10;100054.25;;;21.00;62.62
35248;BME280;21380;52.194;20.520;2023-08-08T12:02:41;100047.25;;;20.96;64.50
35248;BME280;21380;52.194;20.520;2023-08-08T12:05:11;100050.78;;;20.93;62.79
35248;BME280;21380;52.194;20.520;2023-08-08T12:07:39;100037.69;;;20.92;61.89
35248;BME280;21380;52.194;20.520;2023-08-08T12:10:18;100069.06;;;21.04;61.84
35248;BME280;21380;52.194;20.520;2023-08-08T12:12:46;100062.03;;;21.04;61.33
35248;BME280;21380;52.194;20.520;2023-08-08T12:15:12;100068.19;;;21.05;61.34
35248;BME280;21380;52.194;20.520;2023-08-08T12:17:39;100073.41;;;21.05;61.38
35248;BME280;21380;52.194;20.520;2023-08-08T12:20:06;100072.53;;;21.04;61.10
35248;BME280;21380;52.194;20.520;2023-08-08T12:22:33;100066.44;;;21.02;59.93
35248;BME280;21380;52.194;20.520;2023-08-08T12:24:59;100059.44;;;21.03;58.49
35248;BME280;21380;52.194;20.520;2023-08-08T12:27:26;100074.28;;;21.05;59.13
35248;BME280;21380;52.194;20.520;2023-08-08T12:29:51;100069.91;;;21.06;60.04
35248;BME280;21380;52.194;20.520;2023-08-08T12:32:20;100071.66;;;21.05;60.62
35248;BME280;21380;52.194;20.520;2023-08-08T12:34:49;100064.69;;;21.03;61.29
35248;BME280;21380;52.194;20.520;2023-08-08T12:37:16;100063.81;;;21.07;59.89
35248;BME280;21380;52.194;20.520;2023-08-08T12:39:42;100077.78;;;21.06;61.10
35248;BME280;21380;52.194;20.520;2023-08-08T12:42:07;100060.34;;;20.99;59.92
35248;BME280;21380;52.194;20.520;2023-08-08T12:44:33;100066.47;;;20.99;60.94